Flight Track Log - Related Links

Times and Time Zones

All times are in EDT time to prevent confusion due to time zone crossing. See the AAL1068 flight status page for this flight to view local times or setup timezone preferences in your user account.

Time Position Orientation Groundspeed Altitude Reporting Facility
EDT Latitude Longitude Course Direction KTS MPH feet Rate Location/Type
Mon 08:02:18 PM 41.9840 -87.8850 90° East 170 196 1,400  Level FlightAware ADS-B
Mon 08:02:43 PM 41.9830 -87.8560 93° East 202 232 2,300 2,073 Climbing FlightAware ADS-B
Mon 08:03:13 PM 41.9750 -87.8150 105° East 236 272 3,300 2,000 Climbing FlightAware ADS-B
Mon 08:03:28 PM 41.9660 -87.7980 125° Southeast 248 285 3,800 2,200 Climbing FlightAware ADS-B
Mon 08:03:43 PM 41.9530 -87.7790 133° Southeast 266 306 4,400 1,350 Climbing FlightAware ADS-B
Mon 08:04:08 PM 41.9310 -87.7520 138° Southeast 265 305 4,700 900 Climbing FlightAware ADS-B
Mon 08:04:23 PM 41.9150 -87.7430 157° South 262 302 5,000 400 Climbing FlightAware ADS-B
Mon 08:04:53 PM 41.8790 -87.7350 171° South 259 298 5,000  Level FlightAware ADS-B
Mon 08:05:08 PM 41.8600 -87.7320 173° South 257 296 5,000 150 Level FlightAware ADS-B
Mon 08:05:33 PM 41.8330 -87.7380 189° South 248 285 5,100 360 Climbing FlightAware ADS-B
Mon 08:05:58 PM 41.8040 -87.7470 193° South 249 287 5,300 1,527 Climbing FlightAware ADS-B
Mon 08:06:28 PM 41.7700 -87.7570 192° South 265 305 6,500 2,700 Climbing FlightAware ADS-B
Mon 08:06:58 PM 41.7320 -87.7680 192° South 280 322 8,000 3,055 Climbing FlightAware ADS-B
Mon 08:07:23 PM 41.7000 -87.7760 191° South 288 331 9,300 3,343 Climbing FlightAware ADS-B
Mon 08:08:08 PM 41.6370 -87.7690 175° South 302 348 11,900 3,388 Climbing FlightAware ADS-B
Mon 08:08:48 PM 41.5840 -87.7580 171° South 303 349 14,100 2,329 Climbing FlightAware ADS-B
Mon 08:09:33 PM 41.5190 -87.7450 171° South 340 391 15,200 1,976 Climbing FlightAware ADS-B
Mon 08:10:13 PM 41.4510 -87.7310 171° South 368 423 16,900 2,400 Climbing FlightAware ADS-B
Mon 08:10:48 PM 41.3950 -87.7250 175° South 380 437 18,200 2,894 Climbing FlightAware ADS-B
Mon 08:11:38 PM 41.3010 -87.7250 180° South 383 441 21,000 3,200 Climbing FlightAware ADS-B
Mon 08:12:18 PM 41.2290 -87.7260 181° South 382 440 23,000 2,850 Climbing FlightAware ADS-B
Mon 08:12:58 PM 41.1570 -87.7200 176° South 392 451 24,800 2,612 Climbing FlightAware ADS-B
Mon 08:13:43 PM 41.0760 -87.7090 174° South 395 455 26,700 2,118 Climbing FlightAware ADS-B
Mon 08:14:23 PM 41.0050 -87.6990 174° South 404 465 27,800 1,453 Climbing FlightAware ADS-B
Mon 08:15:18 PM 40.8980 -87.6950 178° South 421 484 29,000 1,320 Climbing FlightAware ADS-B
Mon 08:16:03 PM 40.8110 -87.6960 180° South 435 501 30,000 1,482 Climbing FlightAware ADS-B
Mon 08:16:43 PM 40.7290 -87.6950 179° South 444 511 31,100 1,624 Climbing FlightAware ADS-B
Mon 08:17:28 PM 40.6380 -87.6910 178° South 448 516 32,300 1,553 Climbing FlightAware ADS-B
Mon 08:18:08 PM 40.5550 -87.6870 178° South 453 521 33,300 1,875 Climbing FlightAware ADS-B
Mon 08:18:48 PM 40.4690 -87.6800 176° South 447 514 34,800 1,553 Climbing FlightAware ADS-B
Mon 08:19:33 PM 40.3820 -87.6610 171° South 452 520 35,500 2,073 Climbing FlightAware ADS-B
Mon 08:19:43 PM 40.3560 -87.6410 150° Southeast 468 539 36,700 1,800 Climbing FlightAware ADS-B
Mon 08:20:23 PM 40.2870 -87.5940 153° Southeast 474 545 37,000 180 Climbing FlightAware ADS-B
Mon 08:21:23 PM 40.1610 -87.5110 153° Southeast 478 550 37,000  Level FlightAware ADS-B
Mon 08:22:08 PM 40.0740 -87.4530 153° Southeast 478 550 37,000 282 Level FlightAware ADS-B
Mon 08:22:48 PM 39.9930 -87.3990 153° Southeast 482 555 37,400 750 Climbing FlightAware ADS-B
Mon 08:23:28 PM 39.9140 -87.3460 153° Southeast 489 563 38,000 825 Climbing FlightAware ADS-B
Mon 08:24:08 PM 39.8360 -87.2940 153° Southeast 494 568 38,500 800 Climbing FlightAware ADS-B
Mon 08:24:43 PM 39.7580 -87.2420 153° Southeast 495 570 39,000 353 Climbing FlightAware ADS-B
Mon 08:25:33 PM 39.6590 -87.1770 153° Southeast 491 565 39,000  Level FlightAware ADS-B
Mon 08:26:18 PM 39.5750 -87.1210 153° Southeast 491 565 39,000  Level FlightAware ADS-B
Mon 08:26:58 PM 39.4870 -87.0630 153° Southeast 485 558 39,000  Level FlightAware ADS-B
Mon 08:27:43 PM 39.3970 -87.0040 153° Southeast 483 556 39,000  Level FlightAware ADS-B
Mon 08:28:23 PM 39.3160 -86.9510 153° Southeast 481 554 39,000  Level FlightAware ADS-B
Mon 08:29:03 PM 39.2360 -86.8990 153° Southeast 480 552 39,000  Level FlightAware ADS-B
Mon 08:29:43 PM 39.1580 -86.8480 153° Southeast 479 551 39,000  Level FlightAware ADS-B
Mon 08:30:28 PM 39.0720 -86.7890 152° Southeast 481 554 39,000  Level FlightAware ADS-B
Mon 08:31:03 PM 39.0030 -86.7420 152° Southeast 484 557 39,000  Level FlightAware ADS-B
Mon 08:31:43 PM 38.9240 -86.6880 152° Southeast 484 557 39,000  Level FlightAware ADS-B
Mon 08:32:28 PM 38.8350 -86.6280 152° Southeast 482 555 39,000  Level FlightAware ADS-B
Mon 08:33:08 PM 38.7580 -86.5770 153° Southeast 481 554 39,000  Level FlightAware ADS-B
Mon 08:33:53 PM 38.6670 -86.5150 152° Southeast 481 554 39,000  Level FlightAware ADS-B
Mon 08:34:33 PM 38.5880 -86.4630 153° Southeast 481 554 39,000  Level FlightAware ADS-B
Mon 08:35:13 PM 38.5090 -86.4100 152° Southeast 482 555 39,000  Level FlightAware ADS-B
Mon 08:35:53 PM 38.4310 -86.3580 152° Southeast 482 555 39,000  Level FlightAware ADS-B
Mon 08:36:38 PM 38.3380 -86.2960 152° Southeast 483 556 39,000  Level FlightAware ADS-B
Mon 08:37:23 PM 38.2520 -86.2390 152° Southeast 483 556 39,000  Level FlightAware ADS-B
Mon 08:38:03 PM 38.1730 -86.1870 153° Southeast 483 556 39,000  Level FlightAware ADS-B
Mon 08:38:43 PM 38.0930 -86.1340 152° Southeast 483 556 39,000  Level FlightAware ADS-B
Mon 08:39:28 PM 38.0010 -86.0740 153° Southeast 484 557 39,000  Level FlightAware ADS-B
Mon 08:40:08 PM 37.9220 -86.0220 153° Southeast 485 558 39,000  Level FlightAware ADS-B
Mon 08:40:48 PM 37.8410 -85.9690 153° Southeast 487 560 39,000  Level FlightAware ADS-B
Mon 08:41:33 PM 37.7540 -85.9120 153° Southeast 487 560 39,000  Level FlightAware ADS-B
Mon 08:42:13 PM 37.6740 -85.8610 153° Southeast 488 562 39,000  Level FlightAware ADS-B
Mon 08:42:58 PM 37.5830 -85.8010 152° Southeast 487 560 39,000  Level FlightAware ADS-B
Mon 08:43:38 PM 37.5030 -85.7490 153° Southeast 486 559 39,000  Level FlightAware ADS-B
Mon 08:44:23 PM 37.4150 -85.6920 153° Southeast 483 556 39,000  Level FlightAware ADS-B
Mon 08:45:03 PM 37.3350 -85.6410 153° Southeast 483 556 39,000  Level FlightAware ADS-B
Mon 08:45:28 PM 37.2801 -85.6060 153° Southeast 482 555 39,000  Level FlightAware ADS-B
Mon 08:46:00 PM 37.2174 -85.5658 153° Southeast 482 555 39,000  Level FlightAware ADS-B
Mon 08:46:33 PM 37.1506 -85.5230 153° Southeast 481 554 39,000  Level FlightAware ADS-B
Mon 08:47:15 PM 37.0674 -85.4698 153° Southeast 481 554 39,000  Level FlightAware ADS-B
Mon 08:47:46 PM 37.0062 -85.4308 153° Southeast 481 554 39,000  Level FlightAware ADS-B
Mon 08:48:00 PM 36.9794 -85.4143 154° Southeast 479 551 39,000  Level FlightAware ADS-B
Mon 08:48:38 PM 36.9210 -85.3740 151° Southeast 480 552 39,000  Level FlightAware ADS-B
Mon 08:49:18 PM 36.8540 -85.3290 152° Southeast 480 552 39,000  Level FlightAware ADS-B
Mon 08:49:25 PM 36.8015 -85.3523 200° South 465 535 39,000  Level FlightAware ADS-B
Mon 08:50:09 PM 36.7100 -85.3250 167° South 465 535 39,000  Level FlightAware ADS-B
Mon 08:51:11 PM 36.5809 -85.2865 167° South 463 533 39,000  Level FlightAware ADS-B
Mon 08:51:44 PM 36.5122 -85.2660 167° South 462 532 39,000  Level FlightAware ADS-B
Mon 08:52:21 PM 36.4349 -85.2429 166° South 460 529 39,000  Level FlightAware ADS-B
Mon 08:52:53 PM 36.3696 -85.2234 166° South 459 528 39,000  Level FlightAware ADS-B
Mon 08:53:23 PM 36.3069 -85.2047 166° South 458 527 39,000  Level FlightAware ADS-B
Mon 08:53:54 PM 36.2447 -85.1862 167° South 457 526 39,000  Level FlightAware ADS-B
Mon 08:54:24 PM 36.1818 -85.1674 166° South 455 524 39,000  Level FlightAware ADS-B
Mon 08:54:55 PM 36.1188 -85.1488 167° South 455 524 39,000  Level FlightAware ADS-B
Mon 08:55:25 PM 36.0573 -85.1307 167° South 454 522 39,000  Level FlightAware ADS-B
Mon 08:55:55 PM 35.9957 -85.1125 167° South 452 520 39,000  Level FlightAware ADS-B
Mon 08:56:27 PM 35.9318 -85.0936 167° South 452 520 39,000  Level FlightAware ADS-B
Mon 08:56:57 PM 35.8701 -85.0756 167° South 456 525 39,000  Level FlightAware ADS-B
Mon 08:57:53 PM 35.7556 -85.0420 167° South 456 525 39,000  Level FlightAware ADS-B
Mon 08:58:23 PM 35.6936 -85.0239 167° South 455 524 39,000  Level FlightAware ADS-B
Mon 08:58:53 PM 35.6315 -85.0058 167° South 456 525 39,000  Level FlightAware ADS-B
Mon 08:59:24 PM 35.5696 -84.9877 167° South 456 525 39,000  Level FlightAware ADS-B
Mon 08:59:55 PM 35.5064 -84.9691 167° South 456 525 39,000  Level FlightAware ADS-B
Mon 09:00:25 PM 35.4440 -84.9509 167° South 456 525 39,000  Level FlightAware ADS-B
Mon 09:00:55 PM 35.3817 -84.9328 167° South 459 528 39,000  Level FlightAware ADS-B
Mon 09:01:26 PM 35.3179 -84.9143 167° South 460 529 39,000  Level FlightAware ADS-B
Mon 09:01:56 PM 35.2557 -84.8964 167° South 460 529 39,000  Level FlightAware ADS-B
Mon 09:02:27 PM 35.1913 -84.8778 167° South 456 525 39,000  Level FlightAware ADS-B
Mon 09:02:58 PM 35.1274 -84.8593 167° South 454 522 39,000  Level FlightAware ADS-B
Mon 09:03:29 PM 35.0643 -84.8412 167° South 453 521 39,000  Level FlightAware ADS-B
Mon 09:04:00 PM 35.0011 -84.8231 167° South 452 520 39,000  Level FlightAware ADS-B
Mon 09:04:32 PM 34.9358 -84.8044 167° South 452 520 39,000  Level FlightAware ADS-B
Mon 09:05:03 PM 34.8734 -84.7865 167° South 451 519 39,000  Level FlightAware ADS-B
Mon 09:05:48 PM 34.8050 -84.7650 166° South 451 519 39,000  Level FlightAware ADS-B
Mon 09:06:28 PM 34.7110 -84.7400 168° South 450 518 39,000  Level FlightAware ADS-B
Mon 09:07:13 PM 34.6170 -84.7130 167° South 443 510 39,000  Level FlightAware ADS-B
Mon 09:07:58 PM 34.5280 -84.6880 167° South 443 510 39,000  Level FlightAware ADS-B
Mon 09:08:36 PM 34.4406 -84.6630 167° South 452 520 39,000  Level FlightAware ADS-B
Mon 09:09:07 PM 34.3783 -84.6455 167° South 452 520 39,000  Level FlightAware ADS-B
Mon 09:09:50 PM 34.2887 -84.6201 167° South 453 521 39,000  Level FlightAware ADS-B
Mon 09:10:48 PM 34.1717 -84.5870 167° South 455 524 39,000  Level FlightAware ADS-B
Mon 09:11:28 PM 34.0970 -84.5660 167° South 450 518 39,000  Level FlightAware ADS-B
Mon 09:12:08 PM 34.0150 -84.5430 167° South 460 529 39,000  Level FlightAware ADS-B
Mon 09:12:48 PM 33.9320 -84.5200 167° South 461 531 39,000  Level FlightAware ADS-B
Mon 09:13:33 PM 33.8380 -84.4930 167° South 463 533 39,000  Level FlightAware ADS-B
Mon 09:14:17 PM 33.7367 -84.4651 167° South 464 534 39,000  Level FlightAware ADS-B
Mon 09:14:48 PM 33.6725 -84.4473 167° South 464 534 39,000  Level FlightAware ADS-B
Mon 09:15:18 PM 33.6096 -84.4352 171° South 456 525 39,000  Level FlightAware ADS-B
Mon 09:16:18 PM 33.4960 -84.4320 179° South 450 518 39,000  Level FlightAware ADS-B
Mon 09:17:03 PM 33.3960 -84.4300 179° South 448 516 39,000  Level FlightAware ADS-B
Mon 09:17:43 PM 33.3100 -84.4290 179° South 447 514 39,000  Level FlightAware ADS-B
Mon 09:18:23 PM 33.2310 -84.4270 179° South 446 513 39,000  Level FlightAware ADS-B
Mon 09:19:33 PM 33.0870 -84.4240 179° South 444 511 39,000  Level FlightAware ADS-B
Mon 09:20:18 PM 33.0010 -84.4210 178° South 444 511 39,000  Level FlightAware ADS-B
Mon 09:20:58 PM 32.9310 -84.4180 178° South 444 511 39,000  Level FlightAware ADS-B
Mon 09:21:38 PM 32.8610 -84.4150 178° South 444 511 39,000  Level FlightAware ADS-B
Mon 09:22:18 PM 32.7910 -84.4120 178° South 444 511 39,000  Level FlightAware ADS-B
Mon 09:23:08 PM 32.7040 -84.4080 178° South 444 511 39,000  Level FlightAware ADS-B
Mon 09:23:48 PM 32.6340 -84.4060 179° South 444 511 39,000  Level FlightAware ADS-B
Mon 09:24:28 PM 32.5640 -84.4030 178° South 444 511 39,000  Level FlightAware ADS-B
Mon 09:25:08 PM 32.4950 -84.4000 178° South 444 511 39,000  Level FlightAware ADS-B
Mon 09:25:48 PM 32.4250 -84.3970 178° South 444 511 39,000  Level FlightAware ADS-B
Mon 09:26:38 PM 32.3380 -84.3930 178° South 444 511 39,000  Level FlightAware ADS-B
Mon 09:27:18 PM 32.2680 -84.3910 179° South 444 511 39,000  Level FlightAware ADS-B
Mon 09:27:58 PM 32.1980 -84.3880 178° South 444 511 39,000  Level FlightAware ADS-B
Mon 09:28:38 PM 32.1280 -84.3850 178° South 444 511 39,000  Level FlightAware ADS-B
Mon 09:29:18 PM 32.0580 -84.3820 178° South 444 511 39,000  Level FlightAware ADS-B
Mon 09:34:48 PM 31.2420 -84.2360 171° South 457 526 39,000  Level FlightAware ADS-B
Mon 09:35:28 PM 31.2250 -84.2280 158° South 457 526 39,000  Level FlightAware ADS-B
Mon 09:36:08 PM 31.2410 -84.2370 334° Northwest 459 528 39,000  Level FlightAware ADS-B
Mon 09:36:48 PM 31.0020 -84.1240 158° South 463 533 39,000  Level FlightAware ADS-B
Mon 09:37:28 PM 30.9190 -84.0860 159° South 465 535 39,000  Level FlightAware ADS-B
Mon 09:38:13 PM 30.8340 -84.0460 158° South 466 536 39,000  Level FlightAware ADS-B
Mon 09:38:58 PM 30.7320 -83.9980 158° South 468 539 39,000  Level FlightAware ADS-B
Mon 09:39:28 PM 30.6790 -83.9730 158° South 468 539 39,000  Level FlightAware ADS-B
Mon 09:40:08 PM 30.5910 -83.9320 158° South 468 539 39,000  Level FlightAware ADS-B
Mon 09:40:48 PM 30.5100 -83.8950 159° South 468 539 39,000  Level FlightAware ADS-B
Mon 09:41:33 PM 30.4200 -83.8530 158° South 467 537 39,000  Level FlightAware ADS-B
Mon 09:42:13 PM 30.3390 -83.8160 158° South 466 536 39,000  Level FlightAware ADS-B
Mon 09:42:58 PM 30.2500 -83.7750 158° South 467 537 39,000  Level FlightAware ADS-B
Mon 09:43:38 PM 30.1820 -83.7430 158° South 467 537 39,000  Level FlightAware ADS-B
Mon 09:44:33 PM 30.0600 -83.6880 159° South 467 537 39,000  Level FlightAware ADS-B
Mon 09:45:18 PM 29.9660 -83.6450 158° South 467 537 39,000  Level FlightAware ADS-B
Mon 09:46:53 PM 29.7880 -83.5630 158° South 465 535 39,000  Level FlightAware ADS-B
Mon 09:48:03 PM 29.6460 -83.4980 158° South 465 535 39,000  Level FlightAware ADS-B
Mon 09:49:13 PM 29.5050 -83.4350 159° South 465 535 39,000  Level FlightAware ADS-B
Mon 09:50:23 PM 29.3620 -83.3700 158° South 465 535 39,000  Level FlightAware ADS-B
Mon 09:51:33 PM 29.2210 -83.3070 159° South 465 535 39,000  Level FlightAware ADS-B
Mon 09:52:43 PM 29.0820 -83.2440 158° South 454 522 39,000  Level FlightAware ADS-B
Mon 09:54:08 PM 28.9140 -83.1690 159° South 452 520 39,000  Level FlightAware ADS-B
Mon 09:55:18 PM 28.7750 -83.1060 158° South 450 518 39,000  Level FlightAware ADS-B
Mon 09:56:23 PM 28.6470 -83.0490 159° South 449 517 39,000  Level FlightAware ADS-B
Mon 09:57:38 PM 28.4980 -82.9830 159° South 451 519 39,000  Level FlightAware ADS-B
Mon 09:58:48 PM 28.3590 -82.9220 159° South 462 532 39,000  Level FlightAware ADS-B
Mon 09:59:33 PM 28.2690 -82.8820 159° South 465 535 39,000  Level FlightAware ADS-B
Mon 10:00:13 PM 28.1870 -82.8460 159° South 466 536 39,000  Level FlightAware ADS-B
Mon 10:00:58 PM 28.0970 -82.8070 159° South 468 539 39,000  Level FlightAware ADS-B
Mon 10:01:38 PM 28.0170 -82.7720 159° South 468 539 39,000  Level FlightAware ADS-B
Mon 10:02:23 PM 27.9240 -82.7320 159° South 459 528 39,000  Level FlightAware ADS-B
Mon 10:03:03 PM 27.8420 -82.7010 162° South 458 527 39,000  Level FlightAware ADS-B
Mon 10:03:43 PM 27.7620 -82.6690 161° South 471 542 39,000  Level FlightAware ADS-B
Mon 10:04:28 PM 27.6780 -82.6090 148° Southeast 485 558 39,000  Level FlightAware ADS-B
Mon 10:05:08 PM 27.6000 -82.5360 140° Southeast 490 564 39,000  Level FlightAware ADS-B
Mon 10:05:53 PM 27.5220 -82.4630 140° Southeast 490 564 39,000  Level FlightAware ADS-B
Mon 10:06:33 PM 27.4520 -82.3970 140° Southeast 489 563 39,000  Level FlightAware ADS-B
Mon 10:07:13 PM 27.3840 -82.3330 140° Southeast 487 560 39,000  Level FlightAware ADS-B
Mon 10:07:58 PM 27.3120 -82.2670 141° Southeast 485 558 39,000 -282 Level FlightAware ADS-B
Mon 10:08:38 PM 27.2380 -82.1970 140° Southeast 480 552 38,600 -847 Descending FlightAware ADS-B
Mon 10:09:23 PM 27.1590 -82.1240 141° Southeast 482 555 37,800 -988 Descending FlightAware ADS-B
Mon 10:10:03 PM 27.0900 -82.0600 140° Southeast 482 555 37,200 -975 Descending FlightAware ADS-B
Mon 10:10:43 PM 27.0210 -81.9970 141° Southeast 485 558 36,500 -988 Descending FlightAware ADS-B
Mon 10:11:28 PM 26.9430 -81.9240 140° Southeast 489 563 35,800 -918 Descending FlightAware ADS-B
Mon 10:12:08 PM 26.8730 -81.8600 141° Southeast 491 565 35,200 -1,050 Descending FlightAware ADS-B
Mon 10:12:48 PM 26.8040 -81.7960 140° Southeast 491 565 34,400 -2,259 Descending FlightAware ADS-B
Mon 10:13:33 PM 26.7250 -81.7240 141° Southeast 495 570 32,000 -3,388 Descending FlightAware ADS-B
Mon 10:14:13 PM 26.6540 -81.6590 141° Southeast 497 572 29,600 -1,950 Descending FlightAware ADS-B
Mon 10:14:53 PM 26.5920 -81.6000 140° Southeast 498 573 29,400 -150 Descending FlightAware ADS-B
Mon 10:15:33 PM 26.5320 -81.5440 140° Southeast 498 573 29,400  Level FlightAware ADS-B
Mon 10:16:23 PM 26.4560 -81.4740 140° Southeast 498 573 29,400  Level FlightAware ADS-B
Mon 10:17:03 PM 26.3960 -81.4170 140° Southeast 498 573 29,400  Level FlightAware ADS-B
Mon 10:17:43 PM 26.3360 -81.3610 140° Southeast 498 573 29,400 -4,550 Level FlightAware ADS-B
Mon 10:20:08 PM 26.0860 -81.1420 142° Southeast 13,000 -5,460 Descending FlightAware ADS-B
Mon 10:21:03 PM 26.0110 -81.0740 141° Southeast 364 419 11,200 -1,263 Descending FlightAware ADS-B
Mon 10:21:43 PM 25.9650 -81.0320 141° Southeast 353 406 11,000 -150 Descending FlightAware ADS-B
Mon 10:22:23 PM 25.9220 -80.9920 140° Southeast 353 406 11,000 -1,137 Level FlightAware ADS-B
Mon 10:22:58 PM 25.9330 -80.9130 81° East 9,600 -1,964 Descending FlightAware ADS-B
Mon 10:23:18 PM 25.9260 -80.8880 107° East 275 316 9,200 -1,200 Descending FlightAware ADS-B
Mon 10:23:43 PM 25.9170 -80.8520 106° East 269 310 8,700 -1,400 Descending FlightAware ADS-B
Mon 10:24:18 PM 25.9050 -80.8040 106° East 268 308 7,800 -1,418 Descending FlightAware ADS-B
Mon 10:24:38 PM 25.8980 -80.7760 106° East 263 303 7,400 -1,309 Descending FlightAware ADS-B
Mon 10:25:13 PM 25.8870 -80.7310 105° East 262 302 6,600 -1,477 Descending FlightAware ADS-B
Mon 10:25:43 PM 25.8770 -80.6920 106° East 260 299 5,800 -1,543 Descending FlightAware ADS-B
Mon 10:26:23 PM 25.8630 -80.6400 107° East 264 304 4,800 -1,385 Descending FlightAware ADS-B
Mon 10:26:48 PM 25.8550 -80.6070 105° East 257 296 4,300 -1,050 Descending FlightAware ADS-B
Mon 10:27:03 PM 25.8500 -80.5880 106° East 252 290 4,100 -960 Descending FlightAware ADS-B
Mon 10:27:38 PM 25.8390 -80.5460 106° East 243 280 3,500 -720 Descending FlightAware ADS-B
Mon 10:28:43 PM 25.8200 -80.4760 107° East 206 237 2,900 -600 Descending FlightAware ADS-B
Mon 10:28:58 PM 25.8160 -80.4590 105° East 200 230 2,700 -1,067 Descending FlightAware ADS-B
Mon 10:29:28 PM 25.8100 -80.4310 103° East 176 203 2,100 -1,100 Descending FlightAware ADS-B
Mon 10:29:58 PM 25.8030 -80.4070 108° East 150 173 1,600 -764 Descending FlightAware ADS-B
Mon 10:30:23 PM 25.8000 -80.3900 101° East 130 150 1,400 -600 Descending FlightAware ADS-B
Mon 10:31:18 PM 25.7990 -80.3530 92° East 131 151 800 -675 Descending FlightAware ADS-B
Mon 10:31:43 PM 25.7990 -80.3360 90° East 131 151 500 -764 Descending FlightAware ADS-B
Mon 10:32:13 PM 25.8000 -80.3160 87° East 132 152 100 -800 Descending FlightAware ADS-B
Mon 10:32:43 PM 25.8010 -80.2960 87° East 131 151 -200 Descending FlightAware ADS-B

Login

Don't have an account? Register now (free) for customized features, flight alerts, and more!